Oranjestad, Saint Eustatius F.D. Roosevelt Airport (TNCE)

NameSaint Eustatius F.D. Roosevelt Airport
CityOranjestad
CountryNetherlands Antilles
ICAOTNCE
IATAEUX
Altitude39 m
CoordinatesGoogle Map
Live Air TrafficLiveATC.net
METARTNCE 251655Z AUTO 08013KT 040V110 //// // ///////// 29/21 Q1018 RE//
2020-04-25 16:55:00 Wind: East-Northeast (80°) 6.69 m/s - Visibility: 801 m - Temperature: 29 °C - Dew point: 21 °C - Humidity: 62% - Pressure: 1018 hPa

Sorry, no flights used the airport in this database.